Whale Point, California Weather observations

Data are for observation ending at time listed.
 Day   Time    Ave.   Ave.  Ave.  Vector   Max.   Stn.    Total    Solar   Ave.  
  of    of     Air    Rel.  Wind   Wind    Wind   Baro.  Precip.   Rad.    Soil  
Year   Day     Temp.  Hum.  Speed  Dir.    Gust   Pres.                    Temp. 
2014   (PST)    F      %     mph   deg.    mph     mb.     in.     W/m2     F   
------------------------------------------------------------------------------
 260    0:00  99999.0   99999  99999.0   99999    99999.0   99999.0   99999.00   99999    99999.0
 260    0:10  99999.0   99999  99999.0   99999    99999.0   99999.0   99999.00   99999    99999.0
 260    0:20  99999.0   99999  99999.0   99999    99999.0   99999.0   99999.00   99999    99999.0
 260    0:30  99999.0   99999  99999.0   99999    99999.0   99999.0   99999.00   99999    99999.0
 260    0:40  99999.0   99999  99999.0   99999    99999.0   99999.0   99999.00   99999    99999.0
 260    0:50  99999.0   99999  99999.0   99999    99999.0   99999.0   99999.00   99999    99999.0
 260    1:00  99999.0   99999  99999.0   99999    99999.0   99999.0   99999.00   99999    99999.0
 260    1:10  99999.0   99999  99999.0   99999    99999.0   99999.0   99999.00   99999    99999.0
 260    1:20  99999.0   99999  99999.0   99999    99999.0   99999.0   99999.00   99999    99999.0
 260    1:30  99999.0   99999  99999.0   99999    99999.0   99999.0   99999.00   99999    99999.0
 260    1:40  99999.0   99999  99999.0   99999    99999.0   99999.0   99999.00   99999    99999.0
 260    1:50  99999.0   99999  99999.0   99999    99999.0   99999.0   99999.00   99999    99999.0
 260    2:00  99999.0   99999  99999.0   99999    99999.0   99999.0   99999.00   99999    99999.0
 260    2:10  99999.0   99999  99999.0   99999    99999.0   99999.0   99999.00   99999    99999.0
 260    2:20  99999.0   99999  99999.0   99999    99999.0   99999.0   99999.00   99999    99999.0
 260    2:30  99999.0   99999  99999.0   99999    99999.0   99999.0   99999.00   99999    99999.0
 260    2:40   62.4    56    1.5   178      2.9   988.2    0.00       0    74.8
 260    2:50   62.2    59    1.2    40      2.9   987.8    0.00       0    74.7
 260    3:00   62.1    55    2.2   141      4.5   987.8    0.00       0    74.6
 260    3:10   61.3    64    2.3   159      4.1   987.8    0.00       0    74.5
 260    3:20   61.3    62    1.8    46      3.5   987.8    0.00       0    74.4
 260    3:30  99999.0   99999  99999.0   99999    99999.0   99999.0   99999.00   99999    99999.0
 260    3:40   61.2    54    0.7   205      2.7   987.8    0.00       0    74.3
 260    3:50   60.1    61    2.2   198      3.2   988.2    0.00       0    74.2
 260    4:00   57.2    82    2.2   200      3.1   988.2    0.00       0    74.2
 260    4:10   56.7    86    0.1   255      0.9   988.2    0.00       0    74.1
 260    4:20   56.3    86    0.6    50      2.0   988.2    0.00       0    74.0
 260    4:30   56.7    85    1.6   201      4.1   988.2    0.00       0    74.0
 260    4:40   56.5    86    1.5    18      2.9   988.2    0.00       0    73.9
 260    4:50   57.4    73    1.9   168      3.9   988.2    0.00       0    73.8
 260    5:00   59.8    60    1.3   352      4.2   988.2    0.00       0    73.7
 260    5:10   61.5    45    1.6   129      2.5   988.2    0.00       0    73.7
 260    5:20   60.9    59    2.9   181      5.3   988.2    0.00       0    73.6
 260    5:30   58.2    74    1.7   181      3.1   988.2    0.00       0    73.5
 260    5:40   57.4    77    1.1    16      2.0   988.2    0.00       1    73.5
 260    5:50   58.0    71    1.3   133      3.1   988.2    0.00       3    73.4
 260    6:00   58.3    73    1.3   168      3.2   988.2    0.00       6    73.3
 260    6:10   58.7    67    1.6    53      3.0   988.2    0.00       9    73.3
 260    6:20   60.0    59    1.2   171      3.1   988.2    0.00      12    73.2
 260    6:30   63.2    36    1.3    35      3.2   988.5    0.00      14    73.1
 260    6:40   68.8    23    1.1    94      2.7   988.5    0.00      17    73.1
 260    6:50   67.6    27    2.7   162      4.8   988.5    0.00      19    73.0
 260    7:00   65.6    28    0.8   162      2.3   988.8    0.00      20    72.9
 260    7:10   63.6    52    2.0   174      3.8   988.8    0.00      22    72.9
 260    7:20   58.7    75    2.2   173      3.7   988.8    0.00      23    72.8
 260    7:30   57.5    82    1.6   190      3.1   988.8    0.00      25    72.8
 260    7:40   57.5    83    0.4    67      1.5   988.8    0.00     179    72.7
 260    7:50   60.1    80    0.4   198      1.5   988.8    0.00     389    72.6
 260    8:00   59.3    83    2.0   192      3.4   988.8    0.00     423    72.5
 260    8:10   59.0    86    1.8   187      3.6   989.2    0.00     461    72.4
 260    8:20   59.4    85    1.4   184      3.9   989.2    0.00     495    72.4
 260    8:30   61.4    79    1.0   225      4.2   989.2    0.00     528    72.3
 260    8:40   61.3    77    3.1   201      4.5   989.5    0.00     559    72.2
 260    8:50   61.3    78    2.7   201      3.8   989.5    0.00     589    72.2
 260    9:00   58.8    86    3.3   210      5.6   989.5    0.00     618    72.2
 260    9:10   58.1    90    3.2   208      6.3   989.5    0.00     633    72.2
 260    9:20   58.4    90    3.4   209      5.8   989.5    0.00     669    72.1
 260    9:30   58.4    89    4.1   214      5.6   989.5    0.00     700    72.1
 260    9:40   59.4    86    5.4   204      7.8   989.5    0.00     720    72.1
 260    9:50   60.2    83    5.0   202      7.1   989.8    0.00     743    72.1
 260   10:00   59.9    84    4.2   218      6.6   989.8    0.00     762    72.0
 260   10:10   60.4    84    4.3   211      7.5   989.8    0.00     783    72.0
 260   10:20   62.2    80    4.6   202      7.6   990.2    0.00     801    72.0
 260   10:30   62.1    79    4.3   209      7.5   990.2    0.00     818    72.0
 260   10:40   62.0    80    4.0   216      6.9   990.2    0.00     833    72.0
 260   10:50   62.5    79    4.3   208      8.1   989.8    0.00     846    72.0
 260   11:00   62.2    79    5.8   217      9.2   989.8    0.00     857    72.0
 260   11:10   61.8    81    6.4   219      9.6   989.8    0.00     866    72.0
 260   11:20   61.9    80    6.1   214      8.6   989.8    0.00     875    72.0
 260   11:30   62.0    80    5.3   216      7.3   989.8    0.00     881    72.0
 260   11:40   63.7    76    4.9   205      7.5   989.8    0.00     887    72.0
 260   11:50   64.2    75    5.5   202      8.2   989.8    0.00     888    72.1
 260   12:00   64.5    75    5.1   199      8.1   989.5    0.00     889    72.1
 260   12:10   63.9    76    4.9   198      8.0   989.5    0.00     888    72.2
 260   12:20   64.3    76    5.4   193      8.2   989.5    0.00     885    72.2
 260   12:30   64.6    75    5.4   196      8.7   989.5    0.00     880    72.3
 260   12:40   64.6    75    5.0   190      8.6   989.5    0.00     874    72.4
 260   12:50   64.5    76    4.7   195      7.9   989.5    0.00     867    72.4
 260   13:00   66.1    72    5.5   204     10.6   989.8    0.00     856    72.5
 260   13:10   66.6    70    5.3   199      9.0   989.8    0.00     843    72.6
 260   13:20   68.4    66    5.2   205      7.7   989.8    0.00     831    72.7
 260   13:30   68.9    63    5.2   209      8.1   989.8    0.00     817    72.8
 260   13:40   68.6    64    4.4   214      8.0   989.8    0.00     803    73.0
 260   13:50   67.6    65    5.3   228     10.2   989.8    0.00     788    73.1
 260   14:00   67.5    66    4.6   254     10.2   989.8    0.00     771    73.2
 260   14:10   67.8    66    5.1   240     10.6   989.8    0.00     751    73.3
 260   14:20   67.8    66    4.8   216      7.5   989.5    0.00     731    73.5
 260   14:30   68.9    64    4.0   209      6.8   989.5    0.00     710    73.6
 260   14:40   71.6    55    2.7   226      6.5   989.5    0.00     687    73.7
 260   14:50   73.7    47    2.9   245      6.6   989.2    0.00     662    73.9
 260   15:00   72.8    51    5.3   229      8.3   989.2    0.00     634    74.1
 260   15:10   71.9    53    3.9   212      7.0   989.2    0.00     606    74.2
 260   15:20   69.7    60    4.8   224      7.2   989.2    0.00     577    74.4
 260   15:30   70.2    54    3.7   207      7.0   989.2    0.00     546    74.5
 260   15:40   70.8    52    4.0   219      7.9   989.2    0.00     514    74.6
 260   15:50   71.1    55    4.2   225      6.5   989.2    0.00     480    74.8
 260   16:00   69.3    58    4.4   218      7.8   989.2    0.00     444    74.9
 260   16:10   70.3    58    2.3   252      5.5   989.2    0.00     407    75.1
 260   16:20   71.1    58    2.5   212      6.1   989.2    0.00     369    75.3
 260   16:30   70.7    58    2.5   310      6.9   989.2    0.00     330    75.4
 260   16:40   70.7    59    2.6   297      5.6   988.8    0.00     292    75.6
 260   16:50   71.0    59    2.1   274      5.8   989.2    0.00     255    75.7
 260   17:00   70.1    62    2.3   267      5.6   988.8    0.00     218    75.9
 260   17:10   70.3    60    2.1   241      4.7   988.8    0.00     182    76.0
 260   17:20   70.1    61    2.7   220      5.3   988.8    0.00     148    76.1
 260   17:30   69.2    62    3.5   237      5.0   988.8    0.00     117    76.3
 260   17:40   69.5    62    1.1   328      3.7   988.8    0.00      88    76.4
 260   17:50   68.9    64    1.0   338      2.6   988.8    0.00      49    76.5
 260   18:00   68.8    64    1.0    36      4.4   988.8    0.00      32    76.6
 260   18:10   67.9    65    1.1   126      2.8   988.5    0.00      12    76.7
 260   18:20   65.6    71    2.9   171      7.7   988.8    0.00       3    76.8
 260   18:30   64.8    73    2.8   167      4.7   988.8    0.00       1    76.9
 260   18:40   63.4    77    3.2   190      5.2   988.8    0.00       0    77.0
 260   18:50   61.8    81    1.7   162      4.0   989.2    0.00       0    77.1
 260   19:00   62.7    78    2.5    69      3.7   989.2    0.00       0    77.1
 260   19:10   63.7    77    3.0    40      4.9   989.2    0.00       0    77.1
 260   19:20   64.0    76    6.1    50      8.1   989.2    0.00       0    77.2
 260   19:30   64.0    76    6.7    65      8.9   989.2    0.00       0    77.2
 260   19:40   64.6    75    6.5    65      9.1   989.2    0.00       0    77.2
 260   19:50   64.4    74    5.4    41      7.0   989.2    0.00       0    77.2
 260   20:00   64.8    73    2.8    61      5.8   989.5    0.00       0    77.2
 260   20:10   64.5    73    1.2   114      2.9   989.5    0.00       0    77.2
 260   20:20   64.2    74    0.7    51      1.7   989.5    0.00       0    77.2
 260   20:30   64.6    74    0.7    76      1.7   989.5    0.00       0    77.2

Return to Whale Point graphs page.


Western Regional Climate Center,wrcc@dri.edu